Time;durP1;ratioP1;P1;durP2;ratioP2;P2;SDS_P1;SDS_P2;PMS_P1;PMS_P2;Temp;Humidity;BMP_temperature;BMP_pressure;BME280_temperature;BME280_humidity;BME280_pressure;Samples;Min_cycle;Max_cycle;Signal;HPM_P1;HPM_P2
2024/02/06 00:00:19;;;;;;;11.77;4.25;;;;;;;;;;5054927;28;20099;-63
2024/02/06 00:02:45;;;;;;;9.82;3.67;;;;;;;;;;5064356;28;20025;-66
2024/02/06 00:05:11;;;;;;;9.88;4.13;;;;;;;;;;5064190;28;20031;-65
2024/02/06 00:07:37;;;;;;;10.15;3.95;;;;;;;;;;5042385;28;20048;-62
2024/02/06 00:10:03;;;;;;;14.18;4.68;;;;;;;;;;5062564;28;20032;-65
2024/02/06 00:12:29;;;;;;;13.45;4.32;;;;;;;;;;5070970;28;20025;-65
2024/02/06 00:14:55;;;;;;;10.85;3.42;;;;;;;;;;5052999;28;20063;-65
2024/02/06 00:17:22;;;;;;;10.02;4.00;;;;;;;;;;5080426;28;20055;-59
2024/02/06 00:19:48;;;;;;;15.60;4.40;;;;;;;;;;5071342;28;20039;-59
2024/02/06 00:22:14;;;;;;;10.93;3.65;;;;;;;;;;5070969;28;20425;-60
2024/02/06 00:24:40;;;;;;;9.90;3.65;;;;;;;;;;5069657;28;20114;-59
2024/02/06 00:27:06;;;;;;;9.40;3.72;;;;;;;;;;5062241;28;20067;-62
2024/02/06 00:29:32;;;;;;;10.40;4.78;;;;;;;;;;5054512;28;20025;-61
2024/02/06 00:31:58;;;;;;;8.05;3.97;;;;;;;;;;5051176;28;20963;-61
2024/02/06 00:34:23;;;;;;;9.85;3.88;;;;;;;;;;5063501;28;20029;-62
2024/02/06 00:36:49;;;;;;;11.38;3.47;;;;;;;;;;5071254;28;20040;-61
2024/02/06 00:39:16;;;;;;;7.40;3.67;;;;;;;;;;5070232;28;20111;-61
2024/02/06 00:41:43;;;;;;;7.32;3.55;;;;;;;;;;5052073;28;20024;-61
2024/02/06 00:44:09;;;;;;;6.05;2.85;;;;;;;;;;5070236;28;20024;-61
2024/02/06 00:46:35;;;;;;;10.77;3.47;;;;;;;;;;5071267;28;20025;-62
2024/02/06 00:49:01;;;;;;;7.10;3.15;;;;;;;;;;5071022;28;20478;-61
2024/02/06 00:51:26;;;;;;;8.27;2.50;;;;;;;;;;5073045;28;20413;-61
2024/02/06 00:53:53;;;;;;;10.60;3.80;;;;;;;;;;5070387;28;20028;-61
2024/02/06 00:56:18;;;;;;;7.50;3.35;;;;;;;;;;5072470;28;20056;-61
2024/02/06 00:58:44;;;;;;;5.82;3.05;;;;;;;;;;5069095;28;20067;-60
2024/02/06 01:01:10;;;;;;;7.10;2.60;;;;;;;;;;5074709;28;20082;-62
2024/02/06 01:03:37;;;;;;;6.30;3.13;;;;;;;;;;5074138;28;20024;-61
2024/02/06 01:06:04;;;;;;;6.30;2.65;;;;;;;;;;5074567;28;20030;-61
2024/02/06 01:08:30;;;;;;;10.05;3.38;;;;;;;;;;5079925;28;20025;-62
2024/02/06 01:10:56;;;;;;;7.05;2.80;;;;;;;;;;5069375;28;20032;-62
2024/02/06 01:13:22;;;;;;;9.95;3.03;;;;;;;;;;5055375;28;20036;-61
2024/02/06 01:15:48;;;;;;;9.07;3.33;;;;;;;;;;5072982;28;20048;-61
2024/02/06 01:18:15;;;;;;;7.72;2.83;;;;;;;;;;5074277;28;20032;-61
2024/02/06 01:20:41;;;;;;;7.57;3.08;;;;;;;;;;5074319;28;20025;-61
2024/02/06 01:23:07;;;;;;;8.02;3.13;;;;;;;;;;5073973;28;20039;-61
2024/02/06 01:25:33;;;;;;;6.70;2.33;;;;;;;;;;5074260;28;20028;-61
2024/02/06 01:27:59;;;;;;;7.78;2.75;;;;;;;;;;5072947;28;20016;-61
2024/02/06 01:30:25;;;;;;;6.88;2.83;;;;;;;;;;5073056;28;20028;-61
2024/02/06 01:32:51;;;;;;;7.60;2.70;;;;;;;;;;5063240;28;20024;-61
2024/02/06 01:35:18;;;;;;;8.20;2.75;;;;;;;;;;5067904;28;20044;-61
2024/02/06 01:37:44;;;;;;;6.82;3.05;;;;;;;;;;5074148;28;20062;-65
2024/02/06 01:40:10;;;;;;;6.63;2.88;;;;;;;;;;5073985;28;20475;-65
2024/02/06 01:42:37;;;;;;;8.32;3.10;;;;;;;;;;5073194;28;20514;-65
2024/02/06 01:45:04;;;;;;;6.28;2.58;;;;;;;;;;5072334;28;20526;-65
2024/02/06 01:47:30;;;;;;;5.82;2.72;;;;;;;;;;5073385;28;20047;-65
2024/02/06 01:49:56;;;;;;;8.38;3.47;;;;;;;;;;5073222;28;20183;-66
2024/02/06 01:52:23;;;;;;;9.52;3.83;;;;;;;;;;5073369;28;20115;-65
2024/02/06 01:54:49;;;;;;;11.07;3.83;;;;;;;;;;5073354;28;20032;-64
2024/02/06 01:57:15;;;;;;;6.47;3.00;;;;;;;;;;5073483;28;20093;-65
2024/02/06 01:59:41;;;;;;;8.07;3.28;;;;;;;;;;5080652;28;20032;-65
2024/02/06 02:02:07;;;;;;;8.30;3.60;;;;;;;;;;5073676;28;20564;-65
2024/02/06 02:04:33;;;;;;;7.45;3.88;;;;;;;;;;5061672;28;20073;-64
2024/02/06 02:06:59;;;;;;;9.70;3.75;;;;;;;;;;5055467;28;20094;-65
2024/02/06 02:09:26;;;;;;;12.95;4.32;;;;;;;;;;5073333;28;20513;-65
2024/02/06 02:11:52;;;;;;;4.88;3.22;;;;;;;;;;5068357;28;20478;-66
2024/02/06 02:14:18;;;;;;;13.57;3.35;;;;;;;;;;5072707;28;20047;-65
2024/02/06 02:16:44;;;;;;;9.77;4.13;;;;;;;;;;5072168;28;20033;-64
2024/02/06 02:19:10;;;;;;;9.15;3.75;;;;;;;;;;5072885;28;20472;-65
2024/02/06 02:21:38;;;;;;;5.80;3.75;;;;;;;;;;5072564;28;20110;-65
2024/02/06 02:24:04;;;;;;;9.32;3.97;;;;;;;;;;5072770;28;20746;-65
2024/02/06 02:26:30;;;;;;;8.82;3.17;;;;;;;;;;5072487;28;20112;-65
2024/02/06 02:28:57;;;;;;;8.20;3.90;;;;;;;;;;5070863;28;20028;-65
2024/02/06 02:31:23;;;;;;;7.10;4.07;;;;;;;;;;5071617;28;20111;-66
2024/02/06 02:33:50;;;;;;;14.68;4.18;;;;;;;;;;5070914;28;20024;-65
2024/02/06 02:36:16;;;;;;;8.90;3.85;;;;;;;;;;5069146;28;20119;-59
2024/02/06 02:38:42;;;;;;;7.47;3.67;;;;;;;;;;5072967;28;20457;-59
2024/02/06 02:41:08;;;;;;;10.82;4.18;;;;;;;;;;5071103;28;20098;-60
2024/02/06 02:43:34;;;;;;;7.07;3.65;;;;;;;;;;5072510;28;20052;-61
2024/02/06 02:46:00;;;;;;;7.47;3.42;;;;;;;;;;5054762;28;20082;-61
2024/02/06 02:48:26;;;;;;;9.73;4.00;;;;;;;;;;5071261;28;20032;-61
2024/02/06 02:50:52;;;;;;;9.15;3.70;;;;;;;;;;5073231;28;20036;-61
2024/02/06 02:53:18;;;;;;;7.68;3.97;;;;;;;;;;5071291;28;20035;-61
2024/02/06 02:55:44;;;;;;;7.32;3.85;;;;;;;;;;5072643;28;20037;-61
2024/02/06 02:58:10;;;;;;;9.75;3.85;;;;;;;;;;5066588;28;20452;-61
2024/02/06 03:00:36;;;;;;;11.40;4.05;;;;;;;;;;5072018;28;20391;-61
2024/02/06 03:03:02;;;;;;;9.10;4.38;;;;;;;;;;5072277;28;20028;-61
2024/02/06 03:05:28;;;;;;;11.13;4.05;;;;;;;;;;5052362;28;20040;-61
2024/02/06 03:07:54;;;;;;;7.63;3.88;;;;;;;;;;5072742;28;20118;-61
2024/02/06 03:10:20;;;;;;;9.65;3.95;;;;;;;;;;5072289;28;20025;-62
2024/02/06 03:12:46;;;;;;;7.32;4.03;;;;;;;;;;5069625;28;20107;-61
2024/02/06 03:15:12;;;;;;;7.80;4.50;;;;;;;;;;5071300;28;20121;-61
2024/02/06 03:17:38;;;;;;;11.52;3.80;;;;;;;;;;5072092;28;20474;-61
2024/02/06 03:20:04;;;;;;;8.38;3.95;;;;;;;;;;5067245;28;20040;-61
2024/02/06 03:22:32;;;;;;;9.88;4.30;;;;;;;;;;5071889;28;20029;-61
2024/02/06 03:24:59;;;;;;;6.35;3.40;;;;;;;;;;5071758;28;20025;-61
2024/02/06 03:27:25;;;;;;;10.77;4.10;;;;;;;;;;5069226;28;20016;-61
2024/02/06 03:29:51;;;;;;;11.23;3.78;;;;;;;;;;5069087;28;20505;-61
2024/02/06 03:32:18;;;;;;;6.82;3.35;;;;;;;;;;5071163;28;20032;-61
2024/02/06 03:34:44;;;;;;;6.45;3.35;;;;;;;;;;5060557;28;20189;-61
2024/02/06 03:37:09;;;;;;;6.03;2.80;;;;;;;;;;5071321;28;20024;-61
2024/02/06 03:39:35;;;;;;;7.68;3.40;;;;;;;;;;5072102;28;20122;-61
2024/02/06 03:42:01;;;;;;;6.63;3.08;;;;;;;;;;5071839;28;20387;-61
2024/02/06 03:44:27;;;;;;;8.23;2.97;;;;;;;;;;5069885;28;20020;-62
2024/02/06 03:46:53;;;;;;;10.93;2.65;;;;;;;;;;5067953;28;20021;-61
2024/02/06 03:49:19;;;;;;;9.23;3.20;;;;;;;;;;5069021;28;20379;-61
2024/02/06 03:51:45;;;;;;;7.07;2.80;;;;;;;;;;5062321;28;20037;-61
2024/02/06 03:54:11;;;;;;;5.70;2.55;;;;;;;;;;5060579;28;20028;-61
2024/02/06 03:56:37;;;;;;;3.63;2.60;;;;;;;;;;5068177;28;20116;-58
2024/02/06 03:59:03;;;;;;;4.00;2.80;;;;;;;;;;5068763;28;20078;-58
2024/02/06 04:01:29;;;;;;;6.32;2.33;;;;;;;;;;5067998;28;20037;-58
2024/02/06 04:03:55;;;;;;;6.55;2.47;;;;;;;;;;5042600;28;20032;-59
2024/02/06 04:06:21;;;;;;;4.63;2.25;;;;;;;;;;5066511;28;20475;-58
2024/02/06 04:08:47;;;;;;;4.32;2.20;;;;;;;;;;5065393;28;20035;-61
2024/02/06 04:11:13;;;;;;;3.28;1.92;;;;;;;;;;5070437;28;20029;-58
2024/02/06 04:13:39;;;;;;;5.45;2.03;;;;;;;;;;5071190;28;20159;-58
2024/02/06 04:16:06;;;;;;;12.48;2.53;;;;;;;;;;5069953;28;20140;-58
2024/02/06 04:18:35;;;;;;;4.35;2.38;;;;;;;;;;5064570;28;20031;-58
2024/02/06 04:21:01;;;;;;;6.05;2.28;;;;;;;;;;5069355;28;20036;-59
2024/02/06 04:23:27;;;;;;;3.72;2.17;;;;;;;;;;5060093;28;20028;-58
2024/02/06 04:25:53;;;;;;;5.72;2.10;;;;;;;;;;5060193;28;20618;-58
2024/02/06 04:28:19;;;;;;;6.25;2.85;;;;;;;;;;5070705;28;20493;-58
2024/02/06 04:30:46;;;;;;;2.47;1.70;;;;;;;;;;5070642;28;20076;-58
2024/02/06 04:33:12;;;;;;;4.10;1.70;;;;;;;;;;5071709;28;20110;-57
2024/02/06 04:35:37;;;;;;;8.23;2.63;;;;;;;;;;5069142;28;20086;-59
2024/02/06 04:38:07;;;;;;;7.45;2.95;;;;;;;;;;5073394;28;20028;-58
2024/02/06 04:40:34;;;;;;;5.53;2.25;;;;;;;;;;5061079;28;20017;-58
2024/02/06 04:43:00;;;;;;;6.15;2.28;;;;;;;;;;5068833;28;20078;-59
2024/02/06 04:45:26;;;;;;;5.55;2.13;;;;;;;;;;5061690;28;20752;-58
2024/02/06 04:47:52;;;;;;;4.95;2.40;;;;;;;;;;5073635;28;20025;-58
2024/02/06 04:50:19;;;;;;;5.45;2.35;;;;;;;;;;5069389;28;20086;-58
2024/02/06 04:52:45;;;;;;;7.00;2.50;;;;;;;;;;5074872;28;20121;-58
2024/02/06 04:55:11;;;;;;;4.88;2.10;;;;;;;;;;5072547;28;20043;-58
2024/02/06 04:57:38;;;;;;;5.93;2.85;;;;;;;;;;5073511;28;20050;-61
2024/02/06 05:00:04;;;;;;;10.00;3.22;;;;;;;;;;5063416;28;20029;-61
2024/02/06 05:02:30;;;;;;;7.07;2.35;;;;;;;;;;5071106;28;20036;-60
2024/02/06 05:04:56;;;;;;;7.00;2.88;;;;;;;;;;5070948;28;20032;-61
2024/02/06 05:07:22;;;;;;;5.93;2.90;;;;;;;;;;5068576;28;20075;-59
2024/02/06 05:09:48;;;;;;;3.13;2.38;;;;;;;;;;5070813;28;20032;-60
2024/02/06 05:12:14;;;;;;;4.60;2.67;;;;;;;;;;5074392;28;20032;-60
2024/02/06 05:14:40;;;;;;;5.18;2.28;;;;;;;;;;5070182;28;20114;-60
2024/02/06 05:17:06;;;;;;;4.78;2.72;;;;;;;;;;5074896;28;20027;-60
2024/02/06 05:19:32;;;;;;;6.05;2.78;;;;;;;;;;5074290;28;20466;-60
2024/02/06 05:21:59;;;;;;;4.68;2.63;;;;;;;;;;5065619;28;20047;-59
2024/02/06 05:24:26;;;;;;;4.43;2.40;;;;;;;;;;5073029;28;20398;-60
2024/02/06 05:26:52;;;;;;;4.50;2.35;;;;;;;;;;5061282;28;20024;-60
2024/02/06 05:29:18;;;;;;;7.68;2.80;;;;;;;;;;5070875;28;20032;-60
2024/02/06 05:31:44;;;;;;;6.00;2.95;;;;;;;;;;5074516;28;20032;-59
2024/02/06 05:34:10;;;;;;;5.43;2.47;;;;;;;;;;5071999;28;20059;-60
2024/02/06 05:36:36;;;;;;;5.35;2.70;;;;;;;;;;5051515;28;20532;-60
2024/02/06 05:39:02;;;;;;;8.68;3.10;;;;;;;;;;5067148;28;20051;-59
2024/02/06 05:41:28;;;;;;;10.00;2.88;;;;;;;;;;5068812;28;20028;-59
2024/02/06 05:43:54;;;;;;;6.40;2.92;;;;;;;;;;5067967;28;20028;-60
2024/02/06 05:46:20;;;;;;;4.05;2.35;;;;;;;;;;5068083;28;20031;-59
2024/02/06 05:48:46;;;;;;;8.23;2.80;;;;;;;;;;5065447;28;20032;-59
2024/02/06 05:51:12;;;;;;;4.40;2.65;;;;;;;;;;5072504;28;20497;-59
2024/02/06 05:53:38;;;;;;;6.07;2.80;;;;;;;;;;5071137;28;20032;-60
2024/02/06 05:56:04;;;;;;;7.63;2.78;;;;;;;;;;5071478;28;20033;-59
2024/02/06 05:58:30;;;;;;;6.35;3.17;;;;;;;;;;5073740;28;20394;-65
2024/02/06 06:00:56;;;;;;;5.15;2.20;;;;;;;;;;5071569;28;20435;-65
2024/02/06 06:03:22;;;;;;;4.07;2.28;;;;;;;;;;5068585;28;20024;-65
2024/02/06 06:05:48;;;;;;;5.22;2.65;;;;;;;;;;5072441;28;20051;-59
2024/02/06 06:08:14;;;;;;;6.38;2.17;;;;;;;;;;5072858;28;20024;-61
2024/02/06 06:10:40;;;;;;;4.05;2.08;;;;;;;;;;5068982;28;20100;-61
2024/02/06 06:13:06;;;;;;;5.75;2.03;;;;;;;;;;5069913;28;20506;-61
2024/02/06 06:15:32;;;;;;;6.57;3.10;;;;;;;;;;5067666;28;20094;-61
2024/02/06 06:17:58;;;;;;;7.30;2.65;;;;;;;;;;5061912;28;20036;-61
2024/02/06 06:20:24;;;;;;;6.47;2.67;;;;;;;;;;5069726;28;20025;-61
2024/02/06 06:22:50;;;;;;;4.50;2.55;;;;;;;;;;5069438;28;20520;-61
2024/02/06 06:25:16;;;;;;;7.80;2.72;;;;;;;;;;5045976;28;20043;-61
2024/02/06 06:27:42;;;;;;;4.47;2.35;;;;;;;;;;5071881;28;20486;-61
2024/02/06 06:30:09;;;;;;;8.68;2.25;;;;;;;;;;5071603;28;20062;-62
2024/02/06 06:32:35;;;;;;;3.78;2.08;;;;;;;;;;5062808;28;20033;-61
2024/02/06 06:35:04;;;;;;;5.57;2.40;;;;;;;;;;5071075;28;20039;-61
2024/02/06 06:37:30;;;;;;;7.88;2.10;;;;;;;;;;5070258;28;20501;-61
2024/02/06 06:39:56;;;;;;;3.90;2.05;;;;;;;;;;5066838;28;20028;-60
2024/02/06 06:42:22;;;;;;;4.05;2.15;;;;;;;;;;5069745;28;20390;-61
2024/02/06 06:44:48;;;;;;;8.00;2.60;;;;;;;;;;5065644;28;20048;-61
2024/02/06 06:47:14;;;;;;;6.32;2.17;;;;;;;;;;5061780;28;20025;-61
2024/02/06 06:49:40;;;;;;;5.13;2.17;;;;;;;;;;5067019;28;20107;-60
2024/02/06 06:52:07;;;;;;;3.50;2.08;;;;;;;;;;5072506;28;20032;-60
2024/02/06 06:54:36;;;;;;;3.53;1.80;;;;;;;;;;5069553;28;20029;-60
2024/02/06 06:57:05;;;;;;;3.80;2.15;;;;;;;;;;5068494;28;20036;-60
2024/02/06 06:59:32;;;;;;;5.25;2.10;;;;;;;;;;5070250;28;20094;-60
2024/02/06 07:01:59;;;;;;;5.90;2.22;;;;;;;;;;5070104;28;20386;-61
2024/02/06 07:04:28;;;;;;;4.47;2.35;;;;;;;;;;5069261;28;20075;-60
2024/02/06 07:06:54;;;;;;;4.97;2.20;;;;;;;;;;5068175;28;20040;-60
2024/02/06 07:09:22;;;;;;;4.25;2.03;;;;;;;;;;5058455;28;20090;-60
2024/02/06 07:11:48;;;;;;;3.40;2.17;;;;;;;;;;5067114;28;20078;-61
2024/02/06 07:14:14;;;;;;;4.43;1.90;;;;;;;;;;5070162;28;20037;-61
2024/02/06 07:16:40;;;;;;;4.72;2.10;;;;;;;;;;5064094;28;20025;-59
2024/02/06 07:19:06;;;;;;;3.15;1.63;;;;;;;;;;5065474;28;20443;-59
2024/02/06 07:21:32;;;;;;;8.43;2.33;;;;;;;;;;5071895;28;20171;-59
2024/02/06 07:23:58;;;;;;;4.55;2.15;;;;;;;;;;5051361;28;20661;-58
2024/02/06 07:26:24;;;;;;;2.53;1.55;;;;;;;;;;5065050;28;20115;-60
2024/02/06 07:28:50;;;;;;;4.00;1.70;;;;;;;;;;5059580;28;20055;-60
2024/02/06 07:31:18;;;;;;;4.10;1.75;;;;;;;;;;5070126;28;20029;-60
2024/02/06 07:33:44;;;;;;;4.03;1.70;;;;;;;;;;5040345;28;20020;-60
2024/02/06 07:36:10;;;;;;;7.47;2.25;;;;;;;;;;5067775;28;20033;-60
2024/02/06 07:38:36;;;;;;;4.40;1.80;;;;;;;;;;5070097;28;20028;-60
2024/02/06 07:41:03;;;;;;;4.85;1.83;;;;;;;;;;5065201;28;20032;-60
2024/02/06 07:43:29;;;;;;;7.20;1.85;;;;;;;;;;5069921;28;20025;-61
2024/02/06 07:45:55;;;;;;;6.22;2.28;;;;;;;;;;5070369;28;20064;-60
2024/02/06 07:48:21;;;;;;;7.70;1.98;;;;;;;;;;5070327;28;20024;-60
2024/02/06 07:50:48;;;;;;;5.05;2.15;;;;;;;;;;5070654;28;20028;-60
2024/02/06 07:53:14;;;;;;;2.47;1.50;;;;;;;;;;5069477;28;20032;-60
2024/02/06 07:55:40;;;;;;;4.40;2.10;;;;;;;;;;5069750;28;20027;-60
2024/02/06 07:58:07;;;;;;;8.13;2.22;;;;;;;;;;5070352;28;20056;-60
2024/02/06 08:00:34;;;;;;;4.30;1.90;;;;;;;;;;5064975;28;20487;-60
2024/02/06 08:03:00;;;;;;;2.97;1.70;;;;;;;;;;5064599;28;20482;-60
2024/02/06 08:05:26;;;;;;;7.65;1.40;;;;;;;;;;5067570;28;20036;-60
2024/02/06 08:07:52;;;;;;;2.92;1.73;;;;;;;;;;5063506;28;20013;-59
2024/02/06 08:10:18;;;;;;;5.13;1.88;;;;;;;;;;5068670;28;20059;-60
2024/02/06 08:12:45;;;;;;;2.13;1.48;;;;;;;;;;5066221;28;20103;-59
2024/02/06 08:15:11;;;;;;;3.58;1.40;;;;;;;;;;5068832;28;20124;-60
2024/02/06 08:17:40;;;;;;;4.13;1.60;;;;;;;;;;5070301;28;20417;-60
2024/02/06 08:20:09;;;;;;;2.30;1.38;;;;;;;;;;5060539;28;20056;-59
2024/02/06 08:22:35;;;;;;;6.45;1.55;;;;;;;;;;5069525;28;20024;-60
2024/02/06 08:25:01;;;;;;;2.97;1.40;;;;;;;;;;5069747;28;20036;-59
2024/02/06 08:27:26;;;;;;;6.03;1.52;;;;;;;;;;5066967;28;20037;-60
2024/02/06 08:29:52;;;;;;;3.92;2.13;;;;;;;;;;5059331;28;20043;-60
2024/02/06 08:32:18;;;;;;;5.63;2.05;;;;;;;;;;5060571;28;20071;-61
2024/02/06 08:34:44;;;;;;;2.47;1.60;;;;;;;;;;5066173;28;20119;-60
2024/02/06 08:37:10;;;;;;;4.68;1.77;;;;;;;;;;5070281;28;20098;-60
2024/02/06 08:39:36;;;;;;;3.50;1.55;;;;;;;;;;5067585;28;20028;-59
2024/02/06 08:42:02;;;;;;;4.47;1.63;;;;;;;;;;5068574;28;20024;-59
2024/02/06 08:44:30;;;;;;;2.47;1.27;;;;;;;;;;5068766;28;20116;-59
2024/02/06 08:46:56;;;;;;;5.47;1.80;;;;;;;;;;5068948;28;20020;-59
2024/02/06 08:49:22;;;;;;;12.57;1.98;;;;;;;;;;5066042;28;20090;-57
2024/02/06 08:51:50;;;;;;;3.67;1.50;;;;;;;;;;5068382;28;20029;-59
2024/02/06 08:54:17;;;;;;;5.82;1.38;;;;;;;;;;5066893;28;20107;-59
2024/02/06 08:56:43;;;;;;;6.57;1.70;;;;;;;;;;5062112;28;20021;-58
2024/02/06 08:59:09;;;;;;;3.17;1.35;;;;;;;;;;5058408;28;20116;-58
2024/02/06 09:01:36;;;;;;;5.15;1.70;;;;;;;;;;5061619;28;20025;-60
2024/02/06 09:04:04;;;;;;;4.70;1.70;;;;;;;;;;5066916;28;20055;-59
2024/02/06 09:06:30;;;;;;;5.30;1.92;;;;;;;;;;5056941;28;20025;-59
2024/02/06 09:08:59;;;;;;;3.30;1.42;;;;;;;;;;5064145;28;20560;-62
2024/02/06 09:11:26;;;;;;;4.63;1.63;;;;;;;;;;5060187;28;20496;-58
2024/02/06 09:13:53;;;;;;;5.25;1.42;;;;;;;;;;5058434;28;20082;-59
2024/02/06 09:16:22;;;;;;;4.10;1.42;;;;;;;;;;5047480;28;20033;-59
2024/02/06 09:18:48;;;;;;;4.95;1.70;;;;;;;;;;5051677;28;20439;-59
2024/02/06 09:21:15;;;;;;;3.47;1.35;;;;;;;;;;5043923;28;20687;-58
2024/02/06 09:23:41;;;;;;;5.60;1.40;;;;;;;;;;5042879;28;20116;-60
2024/02/06 09:26:10;;;;;;;5.47;1.30;;;;;;;;;;5043384;28;20360;-60
2024/02/06 09:28:36;;;;;;;1.85;1.15;;;;;;;;;;5048459;28;20031;-59
2024/02/06 09:31:02;;;;;;;5.25;1.30;;;;;;;;;;5033279;28;20364;-59
2024/02/06 09:33:28;;;;;;;7.57;1.27;;;;;;;;;;5048336;28;20032;-60
2024/02/06 09:35:54;;;;;;;3.70;1.73;;;;;;;;;;5047292;28;20483;-65
2024/02/06 09:38:20;;;;;;;3.15;1.50;;;;;;;;;;5025396;28;20074;-65
2024/02/06 09:40:47;;;;;;;2.20;1.02;;;;;;;;;;5050022;28;20101;-63
2024/02/06 09:43:14;;;;;;;5.78;1.48;;;;;;;;;;5043694;28;20551;-65
2024/02/06 09:45:40;;;;;;;4.70;1.10;;;;;;;;;;5048211;28;20508;-65
2024/02/06 09:48:09;;;;;;;2.70;1.10;;;;;;;;;;5052295;28;20191;-60
2024/02/06 09:50:35;;;;;;;3.85;1.00;;;;;;;;;;5051121;28;20039;-60
2024/02/06 09:53:01;;;;;;;7.60;1.40;;;;;;;;;;5049872;28;20041;-60
2024/02/06 09:55:28;;;;;;;5.38;1.63;;;;;;;;;;5044938;28;20363;-60
2024/02/06 09:57:54;;;;;;;7.50;1.55;;;;;;;;;;5052454;28;20036;-60
2024/02/06 10:00:21;;;;;;;2.30;1.23;;;;;;;;;;5034818;28;20112;-59
2024/02/06 10:02:48;;;;;;;4.50;1.30;;;;;;;;;;5052732;28;20208;-61
2024/02/06 10:05:18;;;;;;;5.28;1.13;;;;;;;;;;5045913;28;20035;-59
2024/02/06 10:07:49;;;;;;;10.32;1.27;;;;;;;;;;5052087;28;20944;-60
2024/02/06 10:10:19;;;;;;;3.72;1.30;;;;;;;;;;5046869;28;20032;-60
2024/02/06 10:12:44;;;;;;;2.67;0.93;;;;;;;;;;5051825;28;20048;-60
2024/02/06 10:15:17;;;;;;;3.42;1.23;;;;;;;;;;5064023;28;20048;-60
2024/02/06 10:17:43;;;;;;;2.78;1.08;;;;;;;;;;5071772;28;20040;-60
2024/02/06 10:20:09;;;;;;;3.85;1.25;;;;;;;;;;5065622;28;20391;-60
2024/02/06 10:22:35;;;;;;;2.60;0.95;;;;;;;;;;5059881;28;20033;-58
2024/02/06 10:25:05;;;;;;;2.55;1.05;;;;;;;;;;5058266;28;20470;-59
2024/02/06 10:27:31;;;;;;;6.22;1.27;;;;;;;;;;5070879;28;20021;-60
2024/02/06 10:30:01;;;;;;;3.00;1.13;;;;;;;;;;5067163;28;20066;-60
2024/02/06 10:32:31;;;;;;;1.40;0.95;;;;;;;;;;5070172;28;20067;-60
2024/02/06 10:35:04;;;;;;;2.20;0.90;;;;;;;;;;5059775;28;20039;-60
2024/02/06 10:37:33;;;;;;;2.40;1.30;;;;;;;;;;5060888;28;20049;-60
2024/02/06 10:39:59;;;;;;;6.57;1.17;;;;;;;;;;5071834;28;20069;-60
2024/02/06 10:42:25;;;;;;;6.85;1.35;;;;;;;;;;5071236;28;20025;-60
2024/02/06 10:44:55;;;;;;;3.63;1.27;;;;;;;;;;5070930;28;20029;-60
2024/02/06 10:47:22;;;;;;;2.65;1.08;;;;;;;;;;5070125;28;20426;-59
2024/02/06 10:49:48;;;;;;;3.78;1.08;;;;;;;;;;5070421;28;20032;-58
2024/02/06 10:52:15;;;;;;;2.50;1.10;;;;;;;;;;5067957;28;20548;-61
2024/02/06 10:54:41;;;;;;;2.92;1.08;;;;;;;;;;5070504;28;20036;-61
2024/02/06 10:57:08;;;;;;;2.58;1.15;;;;;;;;;;5070110;28;20478;-67
2024/02/06 10:59:36;;;;;;;4.97;1.02;;;;;;;;;;5050997;28;20028;-67
2024/02/06 11:02:05;;;;;;;4.80;1.10;;;;;;;;;;5070835;28;20378;-66
2024/02/06 11:04:33;;;;;;;2.75;1.08;;;;;;;;;;5063418;28;20013;-67
2024/02/06 11:07:05;;;;;;;3.22;1.08;;;;;;;;;;5044128;28;20039;-67
2024/02/06 11:09:32;;;;;;;4.65;1.02;;;;;;;;;;5055801;28;20032;-66
2024/02/06 11:11:59;;;;;;;3.38;1.10;;;;;;;;;;5055726;28;20097;-66
2024/02/06 11:14:26;;;;;;;2.05;1.20;;;;;;;;;;5057426;28;20075;-66
2024/02/06 11:16:58;;;;;;;2.25;1.73;;;;;;;;;;5042461;28;20849;-67
2024/02/06 11:19:26;;;;;;;3.15;0.80;;;;;;;;;;5062600;28;20111;-67
2024/02/06 11:21:57;;;;;;;4.15;1.30;;;;;;;;;;5053985;28;20116;-67
2024/02/06 11:24:24;;;;;;;1.85;0.90;;;;;;;;;;5064850;28;20028;-66
2024/02/06 11:26:51;;;;;;;3.42;1.05;;;;;;;;;;5068072;28;20055;-67
2024/02/06 11:29:17;;;;;;;1.80;0.95;;;;;;;;;;5050122;28;20610;-67
2024/02/06 11:31:44;;;;;;;2.90;1.02;;;;;;;;;;5041537;28;20783;-67
2024/02/06 11:34:11;;;;;;;1.83;1.00;;;;;;;;;;5069080;28;20029;-64
2024/02/06 11:36:37;;;;;;;3.67;1.33;;;;;;;;;;5070878;28;20402;-66
2024/02/06 11:39:10;;;;;;;1.65;0.82;;;;;;;;;;5064057;28;20032;-60
2024/02/06 11:41:36;;;;;;;1.90;0.70;;;;;;;;;;5064045;28;20095;-59
2024/02/06 11:44:09;;;;;;;2.00;0.93;;;;;;;;;;5063723;28;20090;-59
2024/02/06 11:46:44;;;;;;;5.28;1.05;;;;;;;;;;5066504;28;20039;-60
2024/02/06 11:49:11;;;;;;;4.10;1.05;;;;;;;;;;5067588;28;20536;-63
2024/02/06 11:51:38;;;;;;;5.32;0.90;;;;;;;;;;5067350;28;20090;-57
2024/02/06 11:54:14;;;;;;;1.52;0.70;;;;;;;;;;5060956;28;20036;-58
2024/02/06 11:56:40;;;;;;;2.70;0.95;;;;;;;;;;5068584;28;20029;-62
2024/02/06 11:59:06;;;;;;;1.60;0.90;;;;;;;;;;5068735;28;20036;-61
2024/02/06 12:01:33;;;;;;;2.78;1.00;;;;;;;;;;5052287;28;20028;-60
2024/02/06 12:04:02;;;;;;;1.17;0.70;;;;;;;;;;5063795;28;20040;-58
2024/02/06 12:06:28;;;;;;;2.35;0.88;;;;;;;;;;5063905;28;20032;-60
2024/02/06 12:09:02;;;;;;;3.15;0.95;;;;;;;;;;5069182;28;20037;-60
2024/02/06 12:11:33;;;;;;;4.22;1.10;;;;;;;;;;5448802;23;20900;-76
2024/02/06 12:13:59;;;;;;;0.80;0.70;;;;;;;;;;5036884;28;20037;-76
2024/02/06 12:16:25;;;;;;;1.88;0.70;;;;;;;;;;5043146;28;20034;-77
2024/02/06 12:18:51;;;;;;;2.55;0.90;;;;;;;;;;5048710;28;20029;-78
2024/02/06 12:21:21;;;;;;;3.13;1.05;;;;;;;;;;5048453;28;20025;-78
2024/02/06 12:23:47;;;;;;;7.78;1.55;;;;;;;;;;5039127;28;20428;-81
2024/02/06 12:26:32;;;;;;;4.70;1.15;;;;;;;;;;5028065;28;20017;-79
2024/02/06 12:29:02;;;;;;;1.92;0.90;;;;;;;;;;5062696;23;20413;-60
2024/02/06 12:31:28;;;;;;;6.32;0.82;;;;;;;;;;5046807;28;20086;-60
2024/02/06 12:33:54;;;;;;;3.42;1.20;;;;;;;;;;5047379;28;20477;-60
2024/02/06 12:36:26;;;;;;;2.08;0.73;;;;;;;;;;5050189;28;20108;-62
2024/02/06 12:38:53;;;;;;;3.03;1.13;;;;;;;;;;5034744;28;20026;-59
2024/02/06 12:41:19;;;;;;;3.75;1.10;;;;;;;;;;5043608;28;20033;-59
2024/02/06 12:43:45;;;;;;;2.28;1.10;;;;;;;;;;5034015;28;20079;-59
2024/02/06 12:46:11;;;;;;;2.10;1.05;;;;;;;;;;5031715;28;20107;-59
2024/02/06 12:48:37;;;;;;;2.50;1.05;;;;;;;;;;5045748;28;20119;-60
2024/02/06 12:51:03;;;;;;;2.38;0.88;;;;;;;;;;5013648;28;20025;-59
2024/02/06 12:53:29;;;;;;;1.80;0.98;;;;;;;;;;5048373;28;20447;-59
2024/02/06 12:55:55;;;;;;;4.82;1.00;;;;;;;;;;5053633;28;20040;-59
2024/02/06 12:58:21;;;;;;;2.58;0.93;;;;;;;;;;5051329;28;20025;-59
2024/02/06 13:00:59;;;;;;;2.40;1.00;;;;;;;;;;5050996;28;20037;-59
2024/02/06 13:03:25;;;;;;;4.20;0.98;;;;;;;;;;5046250;28;20029;-59
2024/02/06 13:05:55;;;;;;;4.78;1.50;;;;;;;;;;5048064;28;20029;-60
2024/02/06 13:08:22;;;;;;;2.60;1.30;;;;;;;;;;5046120;28;20026;-59
2024/02/06 13:10:48;;;;;;;9.60;1.10;;;;;;;;;;5051169;28;20021;-58
2024/02/06 13:13:18;;;;;;;6.60;1.02;;;;;;;;;;5052902;28;20029;-58
2024/02/06 13:15:44;;;;;;;3.85;0.80;;;;;;;;;;5050247;28;20025;-59
2024/02/06 13:18:15;;;;;;;4.30;1.15;;;;;;;;;;5049853;28;20445;-59
2024/02/06 13:20:42;;;;;;;2.25;0.85;;;;;;;;;;5044713;28;20033;-60
2024/02/06 13:23:11;;;;;;;1.25;0.90;;;;;;;;;;5052388;28;20055;-60
2024/02/06 13:25:37;;;;;;;2.78;0.98;;;;;;;;;;5043406;28;20068;-59
2024/02/06 13:28:04;;;;;;;1.27;0.70;;;;;;;;;;5046425;28;20025;-60
2024/02/06 13:30:30;;;;;;;1.45;0.80;;;;;;;;;;5053410;28;20035;-60
2024/02/06 13:38:08;;;;;;;2.22;0.85;;;;;;;;;;5567589;22;20041;-60
2024/02/06 13:40:35;;;;;;;0.95;0.77;;;;;;;;;;5010138;28;20037;-60
2024/02/06 13:43:01;;;;;;;3.85;1.00;;;;;;;;;;5031086;28;20014;-60
2024/02/06 13:45:27;;;;;;;4.93;1.00;;;;;;;;;;5029213;28;20121;-61
2024/02/06 13:47:59;;;;;;;4.32;1.05;;;;;;;;;;5033429;28;20041;-61
2024/02/06 13:50:25;;;;;;;4.40;1.20;;;;;;;;;;5031679;28;20437;-60
2024/02/06 13:55:44;;;;;;;4.38;1.30;;;;;;;;;;5054759;23;20053;-80
2024/02/06 13:58:10;;;;;;;4.32;1.10;;;;;;;;;;5008117;28;20018;-79
2024/02/06 14:00:36;;;;;;;1.67;0.90;;;;;;;;;;5011557;28;20505;-79
2024/02/06 14:03:02;;;;;;;2.85;0.90;;;;;;;;;;5062715;23;20058;-60
2024/02/06 14:05:30;;;;;;;4.22;1.10;;;;;;;;;;5032887;28;20029;-60
2024/02/06 14:07:57;;;;;;;2.47;1.13;;;;;;;;;;5028680;28;20109;-61
2024/02/06 14:12:55;;;;;;;4.28;1.40;;;;;;;;;;5042570;28;20053;-78
2024/02/06 14:15:22;;;;;;;2.63;0.70;;;;;;;;;;5031197;28;20021;-79
2024/02/06 14:17:49;;;;;;;5.85;0.90;;;;;;;;;;5030635;28;20059;-88
2024/02/06 14:20:15;;;;;;;5.10;1.15;;;;;;;;;;5046904;28;20535;-79
2024/02/06 14:22:41;;;;;;;3.33;1.02;;;;;;;;;;5061301;23;20463;-58
2024/02/06 14:25:09;;;;;;;34.80;13.13;;;;;;;;;;5051360;28;20029;-60
2024/02/06 14:27:34;;;;;;;14.32;5.40;;;;;;;;;;5027237;28;20037;-60
2024/02/06 14:30:00;;;;;;;6.00;2.88;;;;;;;;;;5051313;28;20040;-60
2024/02/06 14:35:34;;;;;;;4.78;2.00;;;;;;;;;;5057786;23;20045;-79
2024/02/06 14:38:00;;;;;;;9.15;3.72;;;;;;;;;;5021971;28;20398;-79
2024/02/06 14:40:26;;;;;;;3.28;1.27;;;;;;;;;;5045446;28;20075;-80
2024/02/06 14:42:53;;;;;;;3.40;1.13;;;;;;;;;;5027143;28;20462;-77
2024/02/06 14:45:19;;;;;;;10.65;2.20;;;;;;;;;;5043436;28;20417;-78
2024/02/06 14:47:45;;;;;;;6.13;1.30;;;;;;;;;;5051084;28;20036;-78
2024/02/06 14:58:14;;;;;;;7.03;6.40;;;;;;;;;;5002384;28;20054;-80